createdAt,value
2022-08-23T00:02:27.066Z,18.16
2022-08-23T00:05:09.030Z,18.18
2022-08-23T00:07:39.145Z,18.16
2022-08-23T00:10:08.232Z,18.16
2022-08-23T00:12:34.866Z,18.12
2022-08-23T00:15:01.420Z,18.14
2022-08-23T00:17:34.228Z,18.16
2022-08-23T00:20:03.892Z,18.16
2022-08-23T00:22:30.374Z,18.13
2022-08-23T00:24:56.948Z,18.16
2022-08-23T00:27:23.542Z,18.17
2022-08-23T00:29:53.406Z,18.15
2022-08-23T00:32:32.420Z,18.12
2022-08-23T00:35:00.415Z,18.11
2022-08-23T00:37:28.338Z,18.08
2022-08-23T00:39:55.208Z,18.04
2022-08-23T00:42:52.424Z,17.98
2022-08-23T00:45:58.400Z,17.95
2022-08-23T00:48:25.571Z,17.95
2022-08-23T00:51:12.776Z,17.91
2022-08-23T00:53:43.686Z,17.90
2022-08-23T00:56:13.038Z,17.90
2022-08-23T00:58:39.785Z,17.89
2022-08-23T01:01:06.677Z,17.92
2022-08-23T01:03:39.027Z,17.92
2022-08-23T01:06:16.909Z,17.92
2022-08-23T01:08:52.392Z,17.94
2022-08-23T01:11:34.085Z,17.96
2022-08-23T01:14:07.281Z,17.96
2022-08-23T01:16:39.748Z,17.97
2022-08-23T01:19:16.668Z,17.96
2022-08-23T01:21:53.216Z,17.94
2022-08-23T01:24:48.086Z,17.94
2022-08-23T01:27:11.432Z,17.91
2022-08-23T01:29:39.212Z,17.88
2022-08-23T01:32:06.878Z,17.85
2022-08-23T01:34:35.168Z,17.85
2022-08-23T01:37:06.236Z,17.86
2022-08-23T01:39:33.056Z,17.87
2022-08-23T01:41:59.652Z,17.89
2022-08-23T01:44:27.357Z,17.91
2022-08-23T01:46:56.660Z,17.91
2022-08-23T01:49:24.663Z,17.87
2022-08-23T01:51:51.590Z,17.88
2022-08-23T01:54:18.156Z,17.87
2022-08-23T01:56:44.814Z,17.84
2022-08-23T01:59:13.468Z,17.83
2022-08-23T02:01:40.175Z,17.82
2022-08-23T02:04:06.777Z,17.82
2022-08-23T02:06:33.742Z,17.85
2022-08-23T02:09:03.903Z,17.83
2022-08-23T02:11:37.308Z,17.83
2022-08-23T02:14:10.182Z,17.74
2022-08-23T02:16:43.939Z,17.68
2022-08-23T02:19:26.483Z,17.63
2022-08-23T02:21:53.254Z,17.67
2022-08-23T02:24:23.728Z,17.71
2022-08-23T02:26:57.144Z,17.74
2022-08-23T02:29:25.940Z,17.77
2022-08-23T02:31:52.525Z,17.80
2022-08-23T02:34:19.925Z,17.79
2022-08-23T02:36:47.559Z,17.78
2022-08-23T02:39:16.395Z,17.78
2022-08-23T02:41:43.108Z,17.68
2022-08-23T02:44:10.986Z,17.68
2022-08-23T02:46:38.884Z,17.68
2022-08-23T02:49:06.093Z,17.64
2022-08-23T02:51:34.244Z,17.57
2022-08-23T02:54:01.366Z,17.58
2022-08-23T02:56:28.010Z,17.62
2022-08-23T02:58:55.015Z,17.62
2022-08-23T03:01:28.903Z,17.65
2022-08-23T03:03:55.935Z,17.59
2022-08-23T03:06:25.230Z,17.56
2022-08-23T03:08:54.176Z,17.57
2022-08-23T03:11:22.515Z,17.56
2022-08-23T03:13:50.776Z,17.56
2022-08-23T03:16:19.086Z,17.57
2022-08-23T03:18:46.644Z,17.49
2022-08-23T03:21:13.828Z,17.51
2022-08-23T03:23:41.063Z,17.53
2022-08-23T03:26:10.654Z,17.55
2022-08-23T03:28:39.030Z,17.45
2022-08-23T03:31:06.583Z,17.37
2022-08-23T03:33:33.162Z,17.30
2022-08-23T03:36:01.359Z,17.29
2022-08-23T03:38:28.206Z,17.33
2022-08-23T03:40:55.075Z,17.39
2022-08-23T03:43:22.188Z,17.42
2022-08-23T03:45:48.842Z,17.46
2022-08-23T03:48:16.770Z,17.45
2022-08-23T03:50:44.073Z,17.38
2022-08-23T03:53:12.187Z,17.35
2022-08-23T03:55:42.516Z,17.33
2022-08-23T03:58:10.612Z,17.39
2022-08-23T04:00:37.491Z,17.43
2022-08-23T04:03:05.763Z,17.47
2022-08-23T04:05:32.331Z,17.49
2022-08-23T04:07:59.351Z,17.51
2022-08-23T04:10:26.112Z,17.51
2022-08-23T04:12:54.898Z,17.52
2022-08-23T04:15:22.197Z,17.54
2022-08-23T04:17:48.868Z,17.50
2022-08-23T04:20:15.537Z,17.44
2022-08-23T04:22:42.208Z,17.37
2022-08-23T04:25:33.494Z,17.38
2022-08-23T04:27:56.158Z,17.41
2022-08-23T04:30:22.703Z,17.40
2022-08-23T04:32:50.484Z,17.40
2022-08-23T04:35:17.818Z,17.38
2022-08-23T04:37:44.391Z,17.34
2022-08-23T04:40:30.264Z,17.29
2022-08-23T04:42:57.193Z,17.21
2022-08-23T04:45:24.139Z,17.17
2022-08-23T04:47:50.815Z,17.21
2022-08-23T04:50:17.574Z,17.28
2022-08-23T04:52:44.353Z,17.28
2022-08-23T04:55:10.942Z,17.25
2022-08-23T04:57:37.489Z,17.26
2022-08-23T05:00:05.848Z,17.31
2022-08-23T05:02:32.400Z,17.33
2022-08-23T05:04:58.923Z,17.25
2022-08-23T05:07:41.586Z,17.15
2022-08-23T05:10:13.011Z,17.11
2022-08-23T05:12:40.208Z,17.20
2022-08-23T05:15:08.676Z,17.28
2022-08-23T05:17:36.228Z,17.33
2022-08-23T05:20:03.390Z,17.38
2022-08-23T05:22:34.460Z,17.45
2022-08-23T05:25:01.054Z,17.49
2022-08-23T05:27:27.598Z,17.51
2022-08-23T05:29:54.484Z,17.49
2022-08-23T05:32:21.837Z,17.34
2022-08-23T05:34:49.008Z,17.23
2022-08-23T05:37:16.124Z,17.14
2022-08-23T05:39:43.141Z,17.07
2022-08-23T05:42:13.238Z,17.00
2022-08-23T05:44:39.804Z,17.02
2022-08-23T05:47:10.655Z,17.08
2022-08-23T05:49:38.802Z,17.02
2022-08-23T05:52:08.455Z,17.08
2022-08-23T05:54:35.747Z,17.18
2022-08-23T05:57:02.341Z,17.28
2022-08-23T05:59:29.085Z,17.37
2022-08-23T06:01:56.559Z,17.43
2022-08-23T06:04:23.701Z,17.42
2022-08-23T06:06:50.284Z,17.36
2022-08-23T06:09:19.446Z,17.40
2022-08-23T06:11:47.540Z,17.39
2022-08-23T06:14:15.160Z,17.28
2022-08-23T06:16:45.961Z,17.23
2022-08-23T06:19:14.272Z,17.18
2022-08-23T06:21:42.610Z,17.21
2022-08-23T06:24:09.306Z,17.27
2022-08-23T06:26:42.359Z,17.27
2022-08-23T06:29:12.429Z,17.22
2022-08-23T06:31:48.646Z,17.17
2022-08-23T06:34:21.242Z,17.21
2022-08-23T06:36:57.153Z,17.28
2022-08-23T06:39:26.464Z,17.27
2022-08-23T06:41:54.087Z,17.28
2022-08-23T06:44:20.778Z,17.38
2022-08-23T06:46:49.464Z,17.47
2022-08-23T06:49:16.449Z,17.48
2022-08-23T06:51:49.865Z,17.47
2022-08-23T06:54:20.256Z,17.51
2022-08-23T06:56:48.182Z,17.58
2022-08-23T06:59:14.942Z,17.59
2022-08-23T07:02:01.407Z,17.65
2022-08-23T07:04:32.270Z,17.67
2022-08-23T07:07:01.560Z,17.73
2022-08-23T07:09:29.751Z,17.83
2022-08-23T07:11:57.908Z,17.95
2022-08-23T07:14:25.606Z,17.98
2022-08-23T07:17:01.282Z,17.91
2022-08-23T07:19:31.295Z,17.92
2022-08-23T07:21:59.481Z,18.00
2022-08-23T07:24:32.325Z,18.01
2022-08-23T07:27:01.522Z,18.03
2022-08-23T07:29:29.987Z,18.10
2022-08-23T07:31:57.142Z,18.21
2022-08-23T07:34:25.036Z,18.31
2022-08-23T07:36:53.554Z,18.34
2022-08-23T07:39:22.251Z,18.41
2022-08-23T07:41:49.492Z,18.50
2022-08-23T07:44:18.290Z,18.56
2022-08-23T07:46:46.342Z,18.65
2022-08-23T07:49:13.400Z,18.77
2022-08-23T07:51:42.478Z,18.83
2022-08-23T07:54:10.437Z,18.90
2022-08-23T07:56:37.756Z,18.98
2022-08-23T07:59:05.659Z,19.03
2022-08-23T08:01:32.305Z,19.12
2022-08-23T08:04:01.327Z,19.21
2022-08-23T08:06:29.550Z,19.27
2022-08-23T08:08:57.600Z,19.42
2022-08-23T08:11:30.927Z,19.52
2022-08-23T08:14:06.046Z,19.63
2022-08-23T08:16:36.666Z,19.72
2022-08-23T08:19:07.751Z,19.77
2022-08-23T08:21:35.274Z,19.84
2022-08-23T08:24:02.935Z,19.92
2022-08-23T08:26:29.589Z,20.00
2022-08-23T08:28:56.571Z,20.06
2022-08-23T08:31:24.714Z,20.16
2022-08-23T08:33:51.426Z,20.25
2022-08-23T08:36:32.632Z,20.29
2022-08-23T08:39:00.606Z,20.36
2022-08-23T08:42:04.112Z,20.43
2022-08-23T08:44:40.347Z,20.55
2022-08-23T08:47:39.451Z,20.67
2022-08-23T08:50:05.953Z,20.80
2022-08-23T08:52:51.575Z,20.94
2022-08-23T08:55:27.450Z,21.06
2022-08-23T08:57:55.172Z,21.16
2022-08-23T09:00:21.752Z,21.26
2022-08-23T09:02:48.328Z,21.35
2022-08-23T09:05:18.216Z,21.44
2022-08-23T09:08:26.484Z,21.53
2022-08-23T09:11:06.718Z,21.62
2022-08-23T09:13:45.479Z,21.72
2022-08-23T09:16:40.296Z,21.81
2022-08-23T09:19:07.689Z,21.92
2022-08-23T09:21:45.674Z,22.00
2022-08-23T09:24:13.426Z,22.09
2022-08-23T09:26:59.082Z,22.19
2022-08-23T09:29:25.545Z,22.26
2022-08-23T09:31:55.880Z,22.32
2022-08-23T09:34:39.089Z,22.48
2022-08-23T09:37:09.852Z,22.58
2022-08-23T09:39:38.991Z,22.65
2022-08-23T09:42:26.989Z,22.79
2022-08-23T09:44:53.682Z,22.84
2022-08-23T09:47:30.243Z,22.91
2022-08-23T09:49:57.030Z,22.96
2022-08-23T09:52:37.643Z,23.02
2022-08-23T09:55:11.021Z,23.09
2022-08-23T09:57:38.100Z,23.14
2022-08-23T10:00:17.622Z,23.23
2022-08-23T10:02:44.540Z,23.30
2022-08-23T10:05:31.534Z,23.36
2022-08-23T10:08:01.108Z,23.44
2022-08-23T10:10:31.400Z,23.50
2022-08-23T10:12:59.167Z,23.53
2022-08-23T10:16:09.546Z,23.58
2022-08-23T10:18:54.605Z,23.66
2022-08-23T10:21:29.138Z,23.62
2022-08-23T10:24:01.572Z,23.66
2022-08-23T10:26:31.885Z,23.69
2022-08-23T10:29:41.094Z,23.77
2022-08-23T10:32:38.898Z,23.84
2022-08-23T10:35:31.453Z,23.93
2022-08-23T10:38:36.010Z,23.99
2022-08-23T10:41:21.892Z,24.08
2022-08-23T10:44:10.125Z,24.07
2022-08-23T10:46:44.982Z,24.12
2022-08-23T10:49:13.115Z,24.19
2022-08-23T10:51:45.081Z,24.29
2022-08-23T10:54:34.451Z,24.40
2022-08-23T10:57:04.398Z,24.48
2022-08-23T10:59:34.796Z,24.52
2022-08-23T11:02:38.438Z,24.61
2022-08-23T11:05:18.546Z,24.58
2022-08-23T11:07:58.429Z,24.59
2022-08-23T11:10:39.938Z,24.61
2022-08-23T11:13:15.811Z,24.71
2022-08-23T11:16:01.955Z,24.74
2022-08-23T11:18:44.664Z,24.69
2022-08-23T11:21:40.878Z,24.75
2022-08-23T11:24:13.266Z,24.78
2022-08-23T11:26:41.379Z,24.79
2022-08-23T11:29:07.869Z,24.76
2022-08-23T11:31:47.420Z,24.83
2022-08-23T11:34:49.796Z,24.89
2022-08-23T11:37:19.403Z,24.92
2022-08-23T11:39:58.348Z,24.94
2022-08-23T11:42:32.959Z,24.99
2022-08-23T11:45:00.904Z,24.98
2022-08-23T11:47:45.372Z,25.04
2022-08-23T11:50:59.679Z,25.09
2022-08-23T11:53:34.592Z,25.05
2022-08-23T11:56:33.699Z,25.05
2022-08-23T11:59:21.601Z,25.13
2022-08-23T12:01:51.054Z,25.21
2022-08-23T12:04:49.124Z,25.21
2022-08-23T12:07:50.626Z,25.14
2022-08-23T12:10:24.647Z,25.12
2022-08-23T12:13:20.788Z,25.17
2022-08-23T12:16:16.249Z,25.19
2022-08-23T12:18:55.518Z,25.18
2022-08-23T12:21:27.367Z,25.25
2022-08-23T12:24:01.335Z,25.37
2022-08-23T12:26:46.417Z,25.44
2022-08-23T12:29:29.300Z,25.56
2022-08-23T12:32:07.238Z,25.67
2022-08-23T12:34:52.779Z,25.68
2022-08-23T12:37:31.017Z,25.73
2022-08-23T12:40:02.283Z,25.71
2022-08-23T12:42:33.594Z,25.70
2022-08-23T12:45:16.966Z,25.69
2022-08-23T12:47:56.512Z,25.71
2022-08-23T12:50:36.608Z,25.77
2022-08-23T12:53:09.714Z,25.90
2022-08-23T12:55:40.284Z,25.97
2022-08-23T12:58:08.288Z,26.01
2022-08-23T13:00:37.022Z,26.07
2022-08-23T13:03:11.687Z,26.08
2022-08-23T13:05:44.081Z,26.14
2022-08-23T13:08:16.030Z,26.19
2022-08-23T13:10:44.010Z,26.23
2022-08-23T13:13:14.012Z,26.26
2022-08-23T13:15:45.747Z,26.25
2022-08-23T13:18:24.135Z,26.14
2022-08-23T13:21:24.800Z,26.06
2022-08-23T13:23:57.426Z,26.04
2022-08-23T13:26:43.137Z,25.97
2022-08-23T13:29:11.420Z,25.95
2022-08-23T13:32:23.690Z,25.87
2022-08-23T13:34:53.686Z,25.83
2022-08-23T13:37:30.540Z,25.78
2022-08-23T13:39:59.855Z,25.84
2022-08-23T13:42:32.149Z,25.86
2022-08-23T13:45:06.014Z,25.81
2022-08-23T13:47:36.511Z,25.79
2022-08-23T13:50:15.600Z,25.75
2022-08-23T13:53:03.102Z,25.74
2022-08-23T13:55:29.902Z,25.81
2022-08-23T13:57:57.593Z,25.79
2022-08-23T14:00:25.355Z,25.77
2022-08-23T14:02:52.780Z,25.82
2022-08-23T14:05:21.805Z,25.88
2022-08-23T14:07:52.801Z,25.89
2022-08-23T14:10:22.503Z,25.94
2022-08-23T14:12:52.325Z,25.99
2022-08-23T14:15:19.504Z,26.03
2022-08-23T14:17:50.643Z,26.09
2022-08-23T14:20:44.010Z,26.19
2022-08-23T14:23:11.848Z,26.27
2022-08-23T14:25:39.944Z,26.31
2022-08-23T14:28:06.503Z,26.30
2022-08-23T14:30:36.739Z,26.30
2022-08-23T14:33:04.354Z,26.31
2022-08-23T14:35:31.267Z,26.42
2022-08-23T14:38:03.481Z,26.43
2022-08-23T14:40:30.939Z,26.46
2022-08-23T14:42:57.566Z,26.47
2022-08-23T14:45:24.156Z,26.49
2022-08-23T14:47:50.717Z,26.44
2022-08-23T14:50:17.525Z,26.35
2022-08-23T14:52:46.607Z,26.27
2022-08-23T14:55:14.531Z,26.08
2022-08-23T14:57:41.401Z,25.92
2022-08-23T15:00:13.798Z,25.83
2022-08-23T15:02:44.617Z,25.78
2022-08-23T15:05:12.877Z,25.76
2022-08-23T15:07:39.511Z,25.68
2022-08-23T15:10:07.102Z,25.62
2022-08-23T15:15:21.939Z,25.40
2022-08-23T15:17:55.783Z,25.33
2022-08-23T15:20:26.493Z,25.22
2022-08-23T15:22:55.827Z,25.13
2022-08-23T15:25:24.276Z,25.04
2022-08-23T15:27:51.814Z,24.98
2022-08-23T15:30:18.420Z,24.93
2022-08-23T15:32:52.230Z,24.98
2022-08-23T15:35:22.970Z,24.96
2022-08-23T15:37:49.607Z,24.97
2022-08-23T15:40:16.388Z,24.98
2022-08-23T15:42:43.039Z,25.04
2022-08-23T15:45:10.482Z,25.09
2022-08-23T15:47:49.966Z,25.13
2022-08-23T15:50:18.376Z,25.15
2022-08-23T15:52:44.916Z,25.12
2022-08-23T15:55:12.051Z,25.08
2022-08-23T15:57:43.121Z,25.05
2022-08-23T16:00:12.081Z,24.98
2022-08-23T16:03:04.320Z,24.96
2022-08-23T16:05:25.426Z,24.89
2022-08-23T16:07:58.037Z,24.83
2022-08-23T16:10:28.350Z,24.79
2022-08-23T16:12:55.480Z,24.75
2022-08-23T16:15:22.479Z,24.65
2022-08-23T16:17:49.042Z,24.59
2022-08-23T16:20:15.674Z,24.52
2022-08-23T16:22:42.297Z,24.45
2022-08-23T16:25:09.122Z,24.44
2022-08-23T16:27:36.018Z,24.48
2022-08-23T16:30:05.603Z,24.52
2022-08-23T16:32:32.157Z,24.55
2022-08-23T16:34:58.747Z,24.55
2022-08-23T16:37:25.560Z,24.56
2022-08-23T16:39:52.195Z,24.55
2022-08-23T16:42:18.838Z,24.54
2022-08-23T16:44:45.384Z,24.40
2022-08-23T16:47:12.778Z,24.34
2022-08-23T16:49:40.118Z,24.36
2022-08-23T16:52:06.723Z,24.37
2022-08-23T16:54:33.297Z,24.23
2022-08-23T16:57:00.055Z,24.20
2022-08-23T16:59:26.657Z,24.19
2022-08-23T17:01:58.880Z,24.12
2022-08-23T17:04:30.410Z,24.07
2022-08-23T17:06:58.472Z,24.02
2022-08-23T17:09:27.735Z,23.94
2022-08-23T17:11:55.603Z,23.90
2022-08-23T17:14:24.168Z,23.84
2022-08-23T17:16:50.897Z,23.80
2022-08-23T17:19:17.651Z,23.74
2022-08-23T17:21:44.896Z,23.69
2022-08-23T17:24:11.419Z,23.60
2022-08-23T17:26:38.036Z,23.48
2022-08-23T17:29:05.105Z,23.43
2022-08-23T17:31:31.759Z,23.32
2022-08-23T17:34:03.192Z,23.23
2022-08-23T17:36:46.237Z,23.27
2022-08-23T17:39:17.514Z,23.20
2022-08-23T17:41:45.556Z,23.15
2022-08-23T17:44:12.715Z,23.16
2022-08-23T17:46:41.588Z,23.13
2022-08-23T17:49:08.178Z,23.01
2022-08-23T17:51:36.768Z,22.96
2022-08-23T17:54:04.704Z,22.83
2022-08-23T17:56:31.303Z,22.69
2022-08-23T17:58:57.930Z,22.63
2022-08-23T18:04:08.039Z,22.52
2022-08-23T18:06:36.530Z,22.40
2022-08-23T18:09:06.625Z,22.43
2022-08-23T18:11:34.238Z,22.46
2022-08-23T18:14:00.847Z,22.49
2022-08-23T18:16:34.415Z,22.50
2022-08-23T18:19:04.229Z,22.45
2022-08-23T18:21:31.260Z,22.41
2022-08-23T18:23:59.058Z,22.26
2022-08-23T18:26:45.034Z,22.23
2022-08-23T18:29:14.522Z,22.18
2022-08-23T18:31:42.864Z,22.07
2022-08-23T18:34:10.465Z,22.02
2022-08-23T18:36:37.077Z,22.03
2022-08-23T18:39:05.621Z,21.99
2022-08-23T18:41:32.240Z,22.02
2022-08-23T18:43:59.945Z,22.01
2022-08-23T18:46:33.809Z,21.92
2022-08-23T18:49:00.973Z,21.89
2022-08-23T18:51:28.562Z,21.86
2022-08-23T18:53:55.497Z,21.83
2022-08-23T18:56:22.070Z,21.83
2022-08-23T18:58:48.949Z,21.84
2022-08-23T19:01:26.884Z,21.78
2022-08-23T19:03:54.494Z,21.76
2022-08-23T19:06:21.196Z,21.75
2022-08-23T19:08:48.009Z,21.71
2022-08-23T19:11:15.761Z,21.69
2022-08-23T19:13:42.404Z,21.65
2022-08-23T19:16:13.826Z,21.58
2022-08-23T19:18:42.807Z,21.53
2022-08-23T19:21:10.119Z,21.40
2022-08-23T19:23:37.657Z,21.39
2022-08-23T19:26:06.859Z,21.34
2022-08-23T19:28:36.475Z,21.29
2022-08-23T19:31:03.129Z,21.25
2022-08-23T19:33:30.356Z,21.20
2022-08-23T19:35:58.152Z,21.14
2022-08-23T19:38:27.346Z,21.08
2022-08-23T19:40:55.596Z,20.97
2022-08-23T19:43:22.844Z,20.91
2022-08-23T19:45:49.568Z,20.87
2022-08-23T19:48:16.213Z,20.84
2022-08-23T19:50:42.949Z,20.78
2022-08-23T19:53:09.547Z,20.75
2022-08-23T19:55:41.767Z,20.75
2022-08-23T19:58:09.335Z,20.73
2022-08-23T20:00:36.877Z,20.67
2022-08-23T20:03:05.255Z,20.61
2022-08-23T20:05:33.325Z,20.52
2022-08-23T20:08:00.976Z,20.47
2022-08-23T20:10:27.605Z,20.42
2022-08-23T20:12:54.214Z,20.34
2022-08-23T20:15:20.893Z,20.25
2022-08-23T20:17:47.440Z,20.19
2022-08-23T20:20:14.077Z,20.11
2022-08-23T20:22:59.724Z,20.07
2022-08-23T20:25:26.382Z,20.04
2022-08-23T20:27:52.950Z,20.00
2022-08-23T20:30:19.632Z,19.98
2022-08-23T20:32:46.182Z,19.95
2022-08-23T20:35:13.437Z,19.92
2022-08-23T20:37:40.305Z,19.86
2022-08-23T20:40:10.350Z,19.81
2022-08-23T20:42:38.702Z,19.79
2022-08-23T20:45:05.753Z,19.80
2022-08-23T20:47:32.717Z,19.80
2022-08-23T20:49:59.296Z,19.75
2022-08-23T20:52:25.870Z,19.69
2022-08-23T20:54:53.493Z,19.65
2022-08-23T20:57:20.109Z,19.65
2022-08-23T20:59:46.731Z,19.65
2022-08-23T21:02:13.643Z,19.61
2022-08-23T21:04:40.440Z,19.58
2022-08-23T21:07:08.295Z,19.58
2022-08-23T21:09:35.298Z,19.56
2022-08-23T21:12:01.905Z,19.52
2022-08-23T21:14:28.461Z,19.50
2022-08-23T21:16:54.980Z,19.42
2022-08-23T21:19:21.547Z,19.36
2022-08-23T21:21:48.755Z,19.20
2022-08-23T21:24:15.397Z,19.15
2022-08-23T21:26:42.052Z,19.13
2022-08-23T21:29:09.954Z,19.16
2022-08-23T21:31:36.792Z,19.13
2022-08-23T21:34:03.941Z,19.06
2022-08-23T21:36:33.428Z,19.04
2022-08-23T21:39:00.001Z,18.99
2022-08-23T21:41:43.196Z,19.00
2022-08-23T21:44:16.566Z,18.93
2022-08-23T21:46:44.011Z,18.93
2022-08-23T21:49:12.220Z,18.89
2022-08-23T21:51:39.907Z,18.85
2022-08-23T21:54:09.008Z,18.85
2022-08-23T21:56:36.513Z,18.79
2022-08-23T21:59:06.052Z,18.74
2022-08-23T22:01:36.470Z,18.75
2022-08-23T22:04:06.015Z,18.77
2022-08-23T22:06:33.264Z,18.73
2022-08-23T22:08:59.856Z,18.70
2022-08-23T22:11:26.941Z,18.70
2022-08-23T22:13:54.244Z,18.68
2022-08-23T22:16:21.414Z,18.64
2022-08-23T22:18:48.413Z,18.61
2022-08-23T22:21:15.157Z,18.60
2022-08-23T22:23:44.736Z,18.57
2022-08-23T22:26:13.971Z,18.57
2022-08-23T22:28:44.664Z,18.51
2022-08-23T22:31:13.246Z,18.49
2022-08-23T22:33:41.279Z,18.44
2022-08-23T22:36:16.488Z,18.43
2022-08-23T22:38:43.770Z,18.37
2022-08-23T22:41:10.672Z,18.33
2022-08-23T22:43:37.361Z,18.29
2022-08-23T22:46:05.886Z,18.29
2022-08-23T22:48:34.955Z,18.26
2022-08-23T22:51:12.563Z,18.21
2022-08-23T22:53:42.604Z,18.27
2022-08-23T22:56:12.326Z,18.28
2022-08-23T22:58:40.431Z,18.23
2022-08-23T23:01:10.797Z,18.16
2022-08-23T23:03:41.296Z,18.11
2022-08-23T23:06:08.419Z,18.13
2022-08-23T23:08:34.958Z,18.10
2022-08-23T23:11:04.855Z,18.06
2022-08-23T23:13:31.932Z,18.01
2022-08-23T23:16:02.402Z,17.97
2022-08-23T23:18:28.985Z,17.98
2022-08-23T23:21:01.022Z,17.94
2022-08-23T23:23:28.830Z,17.90
2022-08-23T23:25:55.416Z,17.88
2022-08-23T23:28:22.296Z,17.87
2022-08-23T23:30:51.250Z,17.87
2022-08-23T23:33:18.444Z,17.82
2022-08-23T23:35:45.436Z,17.84
2022-08-23T23:38:12.652Z,17.83
2022-08-23T23:40:39.610Z,17.86
2022-08-23T23:43:06.897Z,17.82
2022-08-23T23:45:37.380Z,17.77
2022-08-23T23:48:04.143Z,17.75
2022-08-23T23:50:34.933Z,17.78
2022-08-23T23:53:01.491Z,17.79
2022-08-23T23:55:28.171Z,17.79
2022-08-23T23:57:56.132Z,17.79
